createdAt,value
2019-01-03T00:05:03.938Z,3.07
2019-01-03T00:10:36.322Z,2.90
2019-01-03T00:16:03.011Z,3.03
2019-01-03T00:21:31.041Z,2.50
2019-01-03T00:26:57.532Z,2.47
2019-01-03T00:32:37.364Z,2.97
2019-01-03T00:38:14.350Z,3.57
2019-01-03T00:43:40.259Z,3.30
2019-01-03T00:49:08.619Z,2.73
2019-01-03T00:54:49.210Z,2.70
2019-01-03T01:00:12.755Z,3.20
2019-01-03T01:05:39.395Z,3.27
2019-01-03T01:11:19.252Z,2.70
2019-01-03T01:17:04.109Z,2.83
2019-01-03T01:22:49.160Z,2.63
2019-01-03T01:28:09.598Z,3.53
2019-01-03T01:33:37.574Z,2.57
2019-01-03T01:39:10.304Z,2.93
2019-01-03T01:44:35.871Z,2.83
2019-01-03T01:49:59.598Z,2.30
2019-01-03T01:55:44.867Z,3.10
2019-01-03T02:01:09.613Z,2.70
2019-01-03T02:06:32.530Z,2.13
2019-01-03T02:12:00.363Z,2.40
2019-01-03T02:17:34.575Z,2.50
2019-01-03T02:23:08.612Z,2.30
2019-01-03T02:28:40.112Z,2.03
2019-01-03T02:34:09.392Z,1.90
2019-01-03T02:39:45.096Z,2.03
2019-01-03T02:45:07.492Z,2.13
2019-01-03T02:50:46.187Z,1.80
2019-01-03T02:56:25.229Z,1.60
2019-01-03T03:01:54.062Z,1.93
2019-01-03T03:07:22.927Z,1.80
2019-01-03T03:12:59.076Z,1.40
2019-01-03T03:18:39.017Z,1.60
2019-01-03T03:23:57.590Z,1.50
2019-01-03T03:29:23.315Z,1.90
2019-01-03T03:34:57.911Z,1.83
2019-01-03T03:40:31.212Z,1.37
2019-01-03T03:46:10.570Z,1.40
2019-01-03T03:51:38.531Z,1.40
2019-01-03T03:57:11.571Z,1.47
2019-01-03T04:02:38.207Z,1.20
2019-01-03T04:08:23.129Z,1.80
2019-01-03T04:14:09.229Z,1.40
2019-01-03T04:19:42.045Z,1.30
2019-01-03T04:25:09.383Z,1.43
2019-01-03T04:30:35.723Z,1.43
2019-01-03T04:36:09.171Z,1.70
2019-01-03T04:41:34.891Z,2.20
2019-01-03T04:47:02.438Z,2.03
2019-01-03T04:52:29.035Z,1.83
2019-01-03T04:57:52.584Z,1.50
2019-01-03T05:03:39.300Z,1.70
2019-01-03T05:09:05.737Z,1.70
2019-01-03T05:14:34.187Z,1.23
2019-01-03T05:20:00.269Z,1.47
2019-01-03T05:25:42.954Z,1.83
2019-01-03T05:31:15.303Z,1.30
2019-01-03T05:36:56.971Z,1.30
2019-01-03T05:42:22.849Z,1.30
2019-01-03T05:47:50.590Z,1.53
2019-01-03T05:53:35.299Z,1.10
2019-01-03T05:59:05.120Z,1.00
2019-01-03T06:04:27.750Z,1.03
2019-01-03T06:09:58.413Z,1.23
2019-01-03T06:15:33.671Z,1.40
2019-01-03T06:21:06.188Z,1.00
2019-01-03T06:26:37.415Z,1.70
2019-01-03T06:32:09.996Z,1.47
2019-01-03T06:37:37.057Z,1.80
2019-01-03T06:43:25.131Z,1.00
2019-01-03T06:49:07.752Z,1.83
2019-01-03T06:54:52.963Z,1.40
2019-01-03T07:00:23.876Z,1.10
2019-01-03T07:05:50.911Z,1.10
2019-01-03T07:11:22.090Z,1.40
2019-01-03T07:16:50.021Z,1.60
2019-01-03T07:22:21.447Z,1.40
2019-01-03T07:28:05.465Z,1.53
2019-01-03T07:33:33.250Z,1.30
2019-01-03T07:39:01.930Z,1.50
2019-01-03T07:44:28.932Z,1.30
2019-01-03T07:49:55.154Z,1.47
2019-01-03T07:55:34.851Z,1.23
2019-01-03T08:01:02.691Z,1.40
2019-01-03T08:06:29.697Z,1.73
2019-01-03T08:12:05.449Z,1.40
2019-01-03T08:17:38.973Z,1.83
2019-01-03T08:23:09.373Z,1.67
2019-01-03T08:28:34.810Z,1.60
2019-01-03T08:34:14.527Z,2.20
2019-01-03T08:39:41.808Z,1.60
2019-01-03T08:45:14.195Z,2.23
2019-01-03T08:50:40.454Z,1.23
2019-01-03T08:56:14.675Z,1.80
2019-01-03T09:02:05.179Z,1.67
2019-01-03T09:07:40.813Z,1.60
2019-01-03T09:13:25.894Z,1.10
2019-01-03T09:18:59.587Z,1.40
2019-01-03T09:24:25.295Z,1.23
2019-01-03T09:29:45.565Z,1.27
2019-01-03T09:35:04.871Z,1.10
2019-01-03T09:40:33.187Z,1.50
2019-01-03T09:45:44.480Z,0.80
2019-01-03T09:50:57.779Z,1.37
2019-01-03T09:56:08.035Z,1.10
2019-01-03T10:01:18.493Z,1.47
2019-01-03T10:06:29.341Z,1.10
2019-01-03T10:11:41.015Z,1.50
2019-01-03T10:16:51.723Z,1.23
2019-01-03T10:22:07.620Z,1.03
2019-01-03T10:27:16.686Z,1.20
2019-01-03T10:32:25.666Z,1.17
2019-01-03T10:37:34.914Z,1.00
2019-01-03T10:42:49.323Z,1.30
2019-01-03T10:48:06.410Z,1.20
2019-01-03T10:53:16.257Z,1.13
2019-01-03T10:58:25.270Z,1.00
2019-01-03T11:03:33.956Z,0.90
2019-01-03T11:08:43.366Z,0.90
2019-01-03T11:13:56.050Z,1.00
2019-01-03T11:19:05.060Z,1.17
2019-01-03T11:24:18.761Z,1.00
2019-01-03T11:29:33.284Z,1.77
2019-01-03T11:34:43.173Z,1.30
2019-01-03T11:39:53.028Z,1.17
2019-01-03T11:45:05.608Z,1.77
2019-01-03T11:50:15.812Z,1.30
2019-01-03T11:55:23.294Z,1.13
2019-01-03T12:00:34.169Z,1.13
2019-01-03T12:05:46.312Z,1.10
2019-01-03T12:10:55.317Z,1.40
2019-01-03T12:16:03.053Z,1.20
2019-01-03T12:21:16.706Z,0.90
2019-01-03T12:26:30.277Z,2.27
2019-01-03T12:31:38.682Z,1.53
2019-01-03T12:36:50.594Z,1.87
2019-01-03T12:42:01.321Z,2.10
2019-01-03T12:47:09.857Z,2.67
2019-01-03T12:52:20.636Z,1.10
2019-01-03T12:57:33.348Z,0.73
2019-01-03T13:02:47.888Z,0.90
2019-01-03T13:07:59.761Z,0.80
2019-01-03T13:13:10.094Z,0.90
2019-01-03T13:18:19.264Z,0.67
2019-01-03T13:23:32.394Z,0.90
2019-01-03T13:28:40.075Z,1.03
2019-01-03T13:33:50.451Z,1.30
2019-01-03T13:38:58.068Z,0.70
2019-01-03T13:44:11.670Z,0.50
2019-01-03T13:49:20.281Z,0.83
2019-01-03T13:54:30.345Z,0.70
2019-01-03T13:59:39.475Z,0.77
2019-01-03T14:04:52.592Z,0.70
2019-01-03T14:10:04.914Z,0.77
2019-01-03T14:15:14.436Z,0.63
2019-01-03T14:20:24.193Z,0.70
2019-01-03T14:25:33.703Z,1.10
2019-01-03T14:30:45.419Z,1.03
2019-01-03T14:35:56.995Z,1.10
2019-01-03T14:41:05.575Z,0.90
2019-01-03T14:46:15.760Z,1.10
2019-01-03T14:51:26.596Z,1.60
2019-01-03T14:56:37.298Z,0.97
2019-01-03T15:01:49.795Z,0.93
2019-01-03T15:06:58.659Z,1.33
2019-01-03T15:12:06.014Z,0.77
2019-01-03T15:17:16.934Z,1.10
2019-01-03T15:22:27.654Z,0.90
2019-01-03T15:27:40.516Z,1.13
2019-01-03T15:32:50.377Z,0.80
2019-01-03T15:37:59.552Z,0.80
2019-01-03T15:43:09.504Z,1.20
2019-01-03T15:48:17.298Z,1.30
2019-01-03T15:53:27.037Z,1.13
2019-01-03T15:58:38.366Z,1.07
2019-01-03T16:03:49.992Z,2.43
2019-01-03T16:08:58.818Z,1.67
2019-01-03T16:14:11.402Z,1.53
2019-01-03T16:19:25.921Z,1.10
2019-01-03T16:24:41.458Z,1.60
2019-01-03T16:29:52.315Z,1.40
2019-01-03T16:35:04.066Z,2.57
2019-01-03T16:40:13.381Z,2.10
2019-01-03T16:45:20.708Z,1.30
2019-01-03T16:50:28.300Z,1.50
2019-01-03T16:55:40.831Z,1.83
2019-01-03T17:00:50.666Z,1.67
2019-01-03T17:06:00.928Z,1.70
2019-01-03T17:11:12.293Z,1.70
2019-01-03T17:16:22.185Z,1.60
2019-01-03T17:21:32.962Z,1.90
2019-01-03T17:26:41.135Z,1.73
2019-01-03T17:31:52.022Z,2.00
2019-01-03T17:37:03.339Z,3.47
2019-01-03T17:42:14.946Z,3.77
2019-01-03T17:47:25.038Z,3.53
2019-01-03T17:52:35.980Z,2.57
2019-01-03T17:57:48.733Z,2.37
2019-01-03T18:02:59.834Z,3.00
2019-01-03T18:08:13.417Z,3.40
2019-01-03T18:13:24.673Z,2.30
2019-01-03T18:18:39.938Z,2.37
2019-01-03T18:23:50.109Z,2.00
2019-01-03T18:29:01.066Z,1.97
2019-01-03T18:34:11.135Z,2.00
2019-01-03T18:39:21.121Z,2.50
2019-01-03T18:44:33.133Z,2.80
2019-01-03T18:49:45.409Z,2.57
2019-01-03T18:54:57.505Z,2.50
2019-01-03T19:00:12.326Z,2.67
2019-01-03T19:05:23.943Z,4.03
2019-01-03T19:10:54.722Z,4.10
2019-01-03T19:16:42.680Z,3.87
2019-01-03T19:21:52.881Z,3.73
2019-01-03T19:27:05.029Z,4.10
2019-01-03T19:32:18.445Z,3.57
2019-01-03T19:37:31.044Z,4.10
2019-01-03T19:42:47.011Z,3.60
2019-01-03T19:47:54.842Z,4.23
2019-01-03T19:53:04.056Z,4.07
2019-01-03T19:58:15.984Z,2.90
2019-01-03T20:03:27.719Z,3.73
2019-01-03T20:08:36.806Z,3.17
2019-01-03T20:13:44.858Z,2.70
2019-01-03T20:18:58.240Z,3.37
2019-01-03T20:24:10.432Z,4.00
2019-01-03T20:29:24.230Z,4.20
2019-01-03T20:34:36.025Z,4.00
2019-01-03T20:39:48.709Z,3.27
2019-01-03T20:44:56.833Z,3.43
2019-01-03T20:50:05.380Z,2.87
2019-01-03T20:55:37.149Z,3.03
2019-01-03T21:00:49.003Z,3.10
2019-01-03T21:06:01.720Z,3.23
2019-01-03T21:11:09.734Z,3.60
2019-01-03T21:16:19.180Z,3.60
2019-01-03T21:21:28.510Z,3.40
2019-01-03T21:26:37.676Z,4.57
2019-01-03T21:31:50.598Z,6.07
2019-01-03T21:36:58.718Z,7.90
2019-01-03T21:42:13.449Z,6.80
2019-01-03T21:47:23.203Z,7.17
2019-01-03T21:52:36.838Z,7.80
2019-01-03T21:57:47.608Z,6.07
2019-01-03T22:03:01.717Z,6.03
2019-01-03T22:08:07.168Z,5.97
2019-01-03T22:13:18.539Z,5.13
2019-01-03T22:18:28.482Z,5.53
2019-01-03T22:23:43.465Z,4.97
2019-01-03T22:28:55.140Z,5.33
2019-01-03T22:34:07.059Z,6.07
2019-01-03T22:39:19.814Z,4.87
2019-01-03T22:44:33.496Z,4.40
2019-01-03T22:49:43.415Z,4.43
2019-01-03T22:54:50.296Z,3.90
2019-01-03T23:00:00.326Z,4.97
2019-01-03T23:05:14.347Z,4.43
2019-01-03T23:10:23.170Z,3.60
2019-01-03T23:15:33.156Z,4.20
2019-01-03T23:20:40.916Z,4.70
2019-01-03T23:25:59.333Z,5.20
2019-01-03T23:31:07.437Z,4.60
2019-01-03T23:36:17.325Z,4.60
2019-01-03T23:41:26.266Z,3.70
2019-01-03T23:46:36.578Z,5.00
2019-01-03T23:51:50.146Z,4.60
2019-01-03T23:57:01.957Z,5.57
